PATC/TNC METAR and TAF weather

Enter ICAO airport designator
Station Type Date Time Source
PATC METAR 2020/07/08 21:22 UTC NOAA

PATC 082122Z AUTO 25005KT 10SM BKN003 07/07 A3004 RMK AO2 SLP176


Station Type Date Time Source
PATC Decoded METAR 2020/07/08 21:22 UTC NOAA

Tin City Airways Facilities Sector, AK, United States (PATC) 65-34N 167-55W
Jul 08, 2020 - 05:22 PM EDT / 2020.07.08 2122 UTC
Wind: from the WSW (250 degrees) at 6 MPH (5 KT):0
Visibility: 10 mile(s):0
Sky conditions: mostly cloudy
Temperature: 44 F (7 C)
Dew Point: 44 F (7 C)
Relative Humidity: 100%
Pressure (altimeter): 30.04 in. Hg (1017 hPa)
ob: PATC 082122Z AUTO 25005KT 10SM BKN003 07/07 A3004 RMK AO2 SLP176
cycle: 21

Station Type Date Time Source
PATC TAF 2016/08/27 04:12 UTC NOAA

TAF PATC 270400Z 2704/2810 18012G18KT 0400 FG OVC002 QNH3015INS TX10/2718Z TN06/2710Z

Example: see airport list